sensor_id;sensor_type;location;lat;lon;timestamp;temperature;humidity
3713;DHT22;1872;51.406;6.856;2023-02-17T00:01:20;10.60;99.90
3713;DHT22;1872;51.406;6.856;2023-02-17T00:03:47;10.60;99.90
3713;DHT22;1872;51.406;6.856;2023-02-17T00:06:14;10.60;99.90
3713;DHT22;1872;51.406;6.856;2023-02-17T00:08:40;10.60;99.90
3713;DHT22;1872;51.406;6.856;2023-02-17T00:11:07;10.60;99.90
3713;DHT22;1872;51.406;6.856;2023-02-17T00:13:33;10.60;99.90
3713;DHT22;1872;51.406;6.856;2023-02-17T00:15:59;10.60;99.90
3713;DHT22;1872;51.406;6.856;2023-02-17T00:18:25;10.60;99.90
3713;DHT22;1872;51.406;6.856;2023-02-17T00:20:50;10.60;99.90
3713;DHT22;1872;51.406;6.856;2023-02-17T00:23:16;10.60;99.90
3713;DHT22;1872;51.406;6.856;2023-02-17T00:25:42;10.60;99.90
3713;DHT22;1872;51.406;6.856;2023-02-17T00:28:08;10.60;99.90
3713;DHT22;1872;51.406;6.856;2023-02-17T00:30:34;10.60;99.90
3713;DHT22;1872;51.406;6.856;2023-02-17T00:33:01;10.70;99.90
3713;DHT22;1872;51.406;6.856;2023-02-17T00:35:27;10.60;99.90
3713;DHT22;1872;51.406;6.856;2023-02-17T00:37:52;10.70;99.90
3713;DHT22;1872;51.406;6.856;2023-02-17T00:40:18;10.70;99.90
3713;DHT22;1872;51.406;6.856;2023-02-17T00:42:44;10.70;99.90
3713;DHT22;1872;51.406;6.856;2023-02-17T00:45:09;10.70;99.90
3713;DHT22;1872;51.406;6.856;2023-02-17T00:47:35;10.70;99.90
3713;DHT22;1872;51.406;6.856;2023-02-17T00:50:01;10.70;99.90
3713;DHT22;1872;51.406;6.856;2023-02-17T00:52:26;10.70;99.90
3713;DHT22;1872;51.406;6.856;2023-02-17T00:54:52;10.70;99.90
3713;DHT22;1872;51.406;6.856;2023-02-17T00:57:18;10.80;99.90
3713;DHT22;1872;51.406;6.856;2023-02-17T00:59:43;10.70;99.90
3713;DHT22;1872;51.406;6.856;2023-02-17T01:02:09;10.70;99.90
3713;DHT22;1872;51.406;6.856;2023-02-17T01:04:39;10.80;99.90
3713;DHT22;1872;51.406;6.856;2023-02-17T01:07:05;10.70;99.90
3713;DHT22;1872;51.406;6.856;2023-02-17T01:09:30;10.80;99.90
3713;DHT22;1872;51.406;6.856;2023-02-17T01:11:56;10.70;99.90
3713;DHT22;1872;51.406;6.856;2023-02-17T01:14:22;10.70;99.90
3713;DHT22;1872;51.406;6.856;2023-02-17T01:16:48;10.70;99.90
3713;DHT22;1872;51.406;6.856;2023-02-17T01:19:17;10.60;99.90
3713;DHT22;1872;51.406;6.856;2023-02-17T01:21:43;10.60;99.90
3713;DHT22;1872;51.406;6.856;2023-02-17T01:24:11;10.60;99.90
3713;DHT22;1872;51.406;6.856;2023-02-17T01:26:38;10.60;99.90
3713;DHT22;1872;51.406;6.856;2023-02-17T01:29:04;10.60;99.90
3713;DHT22;1872;51.406;6.856;2023-02-17T01:31:31;10.60;99.90
3713;DHT22;1872;51.406;6.856;2023-02-17T01:33:59;10.60;99.90
3713;DHT22;1872;51.406;6.856;2023-02-17T01:36:26;10.60;99.90
3713;DHT22;1872;51.406;6.856;2023-02-17T01:38:51;10.60;99.90
3713;DHT22;1872;51.406;6.856;2023-02-17T01:41:26;10.60;99.90
3713;DHT22;1872;51.406;6.856;2023-02-17T01:46:36;10.60;99.90
3713;DHT22;1872;51.406;6.856;2023-02-17T01:49:11;10.50;99.90
3713;DHT22;1872;51.406;6.856;2023-02-17T01:51:38;10.60;99.90
3713;DHT22;1872;51.406;6.856;2023-02-17T01:54:12;10.50;99.90
3713;DHT22;1872;51.406;6.856;2023-02-17T01:56:42;10.50;99.90
3713;DHT22;1872;51.406;6.856;2023-02-17T01:59:17;10.50;99.90
3713;DHT22;1872;51.406;6.856;2023-02-17T02:01:44;10.50;99.90
3713;DHT22;1872;51.406;6.856;2023-02-17T02:04:13;10.50;99.90
3713;DHT22;1872;51.406;6.856;2023-02-17T02:06:42;10.50;99.90
3713;DHT22;1872;51.406;6.856;2023-02-17T02:09:15;10.50;99.90
3713;DHT22;1872;51.406;6.856;2023-02-17T02:11:43;10.50;99.90
3713;DHT22;1872;51.406;6.856;2023-02-17T02:14:09;10.40;99.90
3713;DHT22;1872;51.406;6.856;2023-02-17T02:16:50;10.40;99.90
3713;DHT22;1872;51.406;6.856;2023-02-17T02:33:57;10.50;99.90
3713;DHT22;1872;51.406;6.856;2023-02-17T02:36:29;10.50;99.90
3713;DHT22;1872;51.406;6.856;2023-02-17T02:39:10;10.60;99.90
3713;DHT22;1872;51.406;6.856;2023-02-17T02:41:40;10.60;99.90
3713;DHT22;1872;51.406;6.856;2023-02-17T02:44:08;10.60;99.90
3713;DHT22;1872;51.406;6.856;2023-02-17T02:46:34;10.60;99.90
3713;DHT22;1872;51.406;6.856;2023-02-17T02:49:01;10.70;99.90
3713;DHT22;1872;51.406;6.856;2023-02-17T02:57:10;10.70;99.90
3713;DHT22;1872;51.406;6.856;2023-02-17T03:02:26;10.70;99.90
3713;DHT22;1872;51.406;6.856;2023-02-17T03:07:24;10.80;99.90
3713;DHT22;1872;51.406;6.856;2023-02-17T03:09:52;10.70;99.90
3713;DHT22;1872;51.406;6.856;2023-02-17T03:12:19;10.80;99.90
3713;DHT22;1872;51.406;6.856;2023-02-17T03:14:48;10.80;99.90
3713;DHT22;1872;51.406;6.856;2023-02-17T03:17:14;10.80;99.90
3713;DHT22;1872;51.406;6.856;2023-02-17T03:19:40;10.80;99.90
3713;DHT22;1872;51.406;6.856;2023-02-17T03:22:18;10.80;99.90
3713;DHT22;1872;51.406;6.856;2023-02-17T03:24:45;10.80;99.90
3713;DHT22;1872;51.406;6.856;2023-02-17T03:27:11;10.80;99.90
3713;DHT22;1872;51.406;6.856;2023-02-17T03:29:37;10.80;99.90
3713;DHT22;1872;51.406;6.856;2023-02-17T03:32:04;10.80;99.90
3713;DHT22;1872;51.406;6.856;2023-02-17T03:34:30;10.80;99.90
3713;DHT22;1872;51.406;6.856;2023-02-17T03:36:56;10.80;99.90
3713;DHT22;1872;51.406;6.856;2023-02-17T03:39:22;10.80;99.90
3713;DHT22;1872;51.406;6.856;2023-02-17T03:41:47;10.80;99.90
3713;DHT22;1872;51.406;6.856;2023-02-17T03:44:19;10.90;99.90
3713;DHT22;1872;51.406;6.856;2023-02-17T03:46:45;10.90;99.90
3713;DHT22;1872;51.406;6.856;2023-02-17T03:49:12;10.90;99.90
3713;DHT22;1872;51.406;6.856;2023-02-17T03:51:38;10.90;99.90
3713;DHT22;1872;51.406;6.856;2023-02-17T03:54:04;10.90;99.90
3713;DHT22;1872;51.406;6.856;2023-02-17T03:56:30;10.90;99.90
3713;DHT22;1872;51.406;6.856;2023-02-17T03:58:56;10.90;99.90
3713;DHT22;1872;51.406;6.856;2023-02-17T04:01:22;10.90;99.90
3713;DHT22;1872;51.406;6.856;2023-02-17T04:03:48;10.90;99.90
3713;DHT22;1872;51.406;6.856;2023-02-17T04:06:13;10.90;99.90
3713;DHT22;1872;51.406;6.856;2023-02-17T04:08:39;10.90;99.90
3713;DHT22;1872;51.406;6.856;2023-02-17T04:11:07;10.90;99.90
3713;DHT22;1872;51.406;6.856;2023-02-17T04:13:33;10.90;99.90
3713;DHT22;1872;51.406;6.856;2023-02-17T04:15:59;10.90;99.90
3713;DHT22;1872;51.406;6.856;2023-02-17T04:18:29;10.90;99.90
3713;DHT22;1872;51.406;6.856;2023-02-17T04:20:55;10.90;99.90
3713;DHT22;1872;51.406;6.856;2023-02-17T04:23:21;10.90;99.90
3713;DHT22;1872;51.406;6.856;2023-02-17T04:25:47;10.90;99.90
3713;DHT22;1872;51.406;6.856;2023-02-17T04:28:14;10.90;99.90
3713;DHT22;1872;51.406;6.856;2023-02-17T04:30:45;10.90;99.90
3713;DHT22;1872;51.406;6.856;2023-02-17T04:33:11;10.90;99.90
3713;DHT22;1872;51.406;6.856;2023-02-17T04:35:39;10.90;99.90
3713;DHT22;1872;51.406;6.856;2023-02-17T04:38:05;10.90;99.90
3713;DHT22;1872;51.406;6.856;2023-02-17T04:40:32;10.90;99.90
3713;DHT22;1872;51.406;6.856;2023-02-17T04:42:57;10.90;99.90
3713;DHT22;1872;51.406;6.856;2023-02-17T04:45:23;10.90;99.90
3713;DHT22;1872;51.406;6.856;2023-02-17T04:47:49;11.00;99.90
3713;DHT22;1872;51.406;6.856;2023-02-17T04:50:15;11.00;99.90
3713;DHT22;1872;51.406;6.856;2023-02-17T04:52:40;11.00;99.90
3713;DHT22;1872;51.406;6.856;2023-02-17T04:55:06;11.00;99.90
3713;DHT22;1872;51.406;6.856;2023-02-17T04:57:33;11.00;99.90
3713;DHT22;1872;51.406;6.856;2023-02-17T04:59:58;10.90;99.90
3713;DHT22;1872;51.406;6.856;2023-02-17T05:02:25;10.90;99.90
3713;DHT22;1872;51.406;6.856;2023-02-17T05:04:52;11.00;99.90
3713;DHT22;1872;51.406;6.856;2023-02-17T05:07:18;11.00;99.90
3713;DHT22;1872;51.406;6.856;2023-02-17T05:09:44;11.00;99.90
3713;DHT22;1872;51.406;6.856;2023-02-17T05:12:10;11.00;99.90
3713;DHT22;1872;51.406;6.856;2023-02-17T05:14:35;11.00;99.90
3713;DHT22;1872;51.406;6.856;2023-02-17T05:17:01;11.00;99.90
3713;DHT22;1872;51.406;6.856;2023-02-17T05:19:27;11.00;99.90
3713;DHT22;1872;51.406;6.856;2023-02-17T05:21:53;11.00;99.90
3713;DHT22;1872;51.406;6.856;2023-02-17T05:24:18;11.00;99.90
3713;DHT22;1872;51.406;6.856;2023-02-17T05:26:44;11.00;99.90
3713;DHT22;1872;51.406;6.856;2023-02-17T05:29:10;11.00;99.90
3713;DHT22;1872;51.406;6.856;2023-02-17T05:31:35;11.00;99.90
3713;DHT22;1872;51.406;6.856;2023-02-17T05:34:01;11.00;99.90
3713;DHT22;1872;51.406;6.856;2023-02-17T05:36:27;11.00;99.90
3713;DHT22;1872;51.406;6.856;2023-02-17T05:38:53;11.00;99.90
3713;DHT22;1872;51.406;6.856;2023-02-17T05:41:18;11.00;99.90
3713;DHT22;1872;51.406;6.856;2023-02-17T05:43:45;11.00;99.90
3713;DHT22;1872;51.406;6.856;2023-02-17T05:46:11;11.00;99.90
3713;DHT22;1872;51.406;6.856;2023-02-17T05:48:38;11.00;99.90
3713;DHT22;1872;51.406;6.856;2023-02-17T05:51:04;11.00;99.90
3713;DHT22;1872;51.406;6.856;2023-02-17T05:53:30;11.00;99.90
3713;DHT22;1872;51.406;6.856;2023-02-17T05:55:56;11.00;99.90
3713;DHT22;1872;51.406;6.856;2023-02-17T05:58:22;11.00;99.90
3713;DHT22;1872;51.406;6.856;2023-02-17T06:00:47;11.00;99.90
3713;DHT22;1872;51.406;6.856;2023-02-17T06:03:13;11.00;99.90
3713;DHT22;1872;51.406;6.856;2023-02-17T06:05:40;11.00;99.90
3713;DHT22;1872;51.406;6.856;2023-02-17T06:08:06;11.00;99.90
3713;DHT22;1872;51.406;6.856;2023-02-17T06:10:32;11.00;99.90
3713;DHT22;1872;51.406;6.856;2023-02-17T06:12:58;11.00;99.90
3713;DHT22;1872;51.406;6.856;2023-02-17T06:15:24;11.00;99.90
3713;DHT22;1872;51.406;6.856;2023-02-17T06:17:49;11.00;99.90
3713;DHT22;1872;51.406;6.856;2023-02-17T06:20:15;11.00;99.90
3713;DHT22;1872;51.406;6.856;2023-02-17T06:22:41;11.00;99.90
3713;DHT22;1872;51.406;6.856;2023-02-17T06:25:08;11.00;99.90
3713;DHT22;1872;51.406;6.856;2023-02-17T06:27:34;11.00;99.90
3713;DHT22;1872;51.406;6.856;2023-02-17T06:29:59;11.00;99.90
3713;DHT22;1872;51.406;6.856;2023-02-17T06:32:26;11.00;99.90
3713;DHT22;1872;51.406;6.856;2023-02-17T06:34:52;11.00;99.90
3713;DHT22;1872;51.406;6.856;2023-02-17T06:37:18;11.00;99.90
3713;DHT22;1872;51.406;6.856;2023-02-17T06:39:46;11.00;99.90
3713;DHT22;1872;51.406;6.856;2023-02-17T06:42:11;11.00;99.90
3713;DHT22;1872;51.406;6.856;2023-02-17T06:44:39;11.00;99.90
3713;DHT22;1872;51.406;6.856;2023-02-17T06:47:05;11.00;99.90
3713;DHT22;1872;51.406;6.856;2023-02-17T06:49:34;11.10;99.90
3713;DHT22;1872;51.406;6.856;2023-02-17T06:51:59;11.10;99.90
3713;DHT22;1872;51.406;6.856;2023-02-17T06:54:25;11.10;99.90
3713;DHT22;1872;51.406;6.856;2023-02-17T06:56:51;11.10;99.90
3713;DHT22;1872;51.406;6.856;2023-02-17T06:59:16;11.00;99.90
3713;DHT22;1872;51.406;6.856;2023-02-17T07:01:42;11.00;99.90
3713;DHT22;1872;51.406;6.856;2023-02-17T07:04:08;11.00;99.90
3713;DHT22;1872;51.406;6.856;2023-02-17T07:06:34;10.90;99.90
3713;DHT22;1872;51.406;6.856;2023-02-17T07:09:00;10.90;99.90
3713;DHT22;1872;51.406;6.856;2023-02-17T07:11:26;10.90;99.90
3713;DHT22;1872;51.406;6.856;2023-02-17T07:13:56;10.90;99.90
3713;DHT22;1872;51.406;6.856;2023-02-17T07:16:22;10.90;99.90
3713;DHT22;1872;51.406;6.856;2023-02-17T07:18:47;10.90;99.90
3713;DHT22;1872;51.406;6.856;2023-02-17T07:21:13;10.90;99.90
3713;DHT22;1872;51.406;6.856;2023-02-17T07:23:39;10.90;99.90
3713;DHT22;1872;51.406;6.856;2023-02-17T07:26:07;10.90;99.90
3713;DHT22;1872;51.406;6.856;2023-02-17T07:28:34;10.90;99.90
3713;DHT22;1872;51.406;6.856;2023-02-17T07:31:12;10.90;99.90
3713;DHT22;1872;51.406;6.856;2023-02-17T07:33:38;10.90;99.90
3713;DHT22;1872;51.406;6.856;2023-02-17T07:36:09;11.00;99.90
3713;DHT22;1872;51.406;6.856;2023-02-17T07:38:36;11.00;99.90
3713;DHT22;1872;51.406;6.856;2023-02-17T07:41:16;11.00;99.90
3713;DHT22;1872;51.406;6.856;2023-02-17T07:43:43;11.00;99.90
3713;DHT22;1872;51.406;6.856;2023-02-17T07:46:09;11.00;99.90
3713;DHT22;1872;51.406;6.856;2023-02-17T07:48:35;11.00;99.90
3713;DHT22;1872;51.406;6.856;2023-02-17T07:51:09;11.00;99.90
3713;DHT22;1872;51.406;6.856;2023-02-17T07:53:35;11.10;99.90
3713;DHT22;1872;51.406;6.856;2023-02-17T07:56:06;11.10;99.90
3713;DHT22;1872;51.406;6.856;2023-02-17T07:58:34;11.10;99.90
3713;DHT22;1872;51.406;6.856;2023-02-17T08:01:15;11.10;99.90
3713;DHT22;1872;51.406;6.856;2023-02-17T08:03:42;11.20;99.90
3713;DHT22;1872;51.406;6.856;2023-02-17T08:06:12;11.20;99.90
3713;DHT22;1872;51.406;6.856;2023-02-17T08:08:39;11.20;99.90
3713;DHT22;1872;51.406;6.856;2023-02-17T08:11:23;11.20;99.90
3713;DHT22;1872;51.406;6.856;2023-02-17T08:14:08;11.20;99.90
3713;DHT22;1872;51.406;6.856;2023-02-17T08:16:33;11.20;99.90
3713;DHT22;1872;51.406;6.856;2023-02-17T08:18:59;11.20;99.90
3713;DHT22;1872;51.406;6.856;2023-02-17T08:21:27;11.30;99.90
3713;DHT22;1872;51.406;6.856;2023-02-17T08:23:54;11.30;99.90
3713;DHT22;1872;51.406;6.856;2023-02-17T08:26:20;11.30;99.90
3713;DHT22;1872;51.406;6.856;2023-02-17T08:28:45;11.30;99.90
3713;DHT22;1872;51.406;6.856;2023-02-17T08:31:32;11.30;99.90
3713;DHT22;1872;51.406;6.856;2023-02-17T08:34:07;11.30;99.90
3713;DHT22;1872;51.406;6.856;2023-02-17T08:36:34;11.40;99.90
3713;DHT22;1872;51.406;6.856;2023-02-17T08:39:03;11.40;99.90
3713;DHT22;1872;51.406;6.856;2023-02-17T08:41:32;11.40;99.90
3713;DHT22;1872;51.406;6.856;2023-02-17T08:44:00;11.40;99.90
3713;DHT22;1872;51.406;6.856;2023-02-17T08:46:28;11.50;99.90
3713;DHT22;1872;51.406;6.856;2023-02-17T08:48:55;11.50;99.90
3713;DHT22;1872;51.406;6.856;2023-02-17T08:51:22;11.50;99.90
3713;DHT22;1872;51.406;6.856;2023-02-17T08:53:54;11.60;99.90
3713;DHT22;1872;51.406;6.856;2023-02-17T08:56:21;11.60;99.90
3713;DHT22;1872;51.406;6.856;2023-02-17T08:58:48;11.70;99.90
3713;DHT22;1872;51.406;6.856;2023-02-17T09:01:14;11.70;99.90
3713;DHT22;1872;51.406;6.856;2023-02-17T09:03:43;11.70;99.90
3713;DHT22;1872;51.406;6.856;2023-02-17T09:06:09;11.80;99.90
3713;DHT22;1872;51.406;6.856;2023-02-17T09:08:35;11.80;99.90
3713;DHT22;1872;51.406;6.856;2023-02-17T09:11:04;11.80;99.90
3713;DHT22;1872;51.406;6.856;2023-02-17T09:13:30;11.90;99.90
3713;DHT22;1872;51.406;6.856;2023-02-17T09:15:56;11.90;99.90
3713;DHT22;1872;51.406;6.856;2023-02-17T09:18:22;12.00;99.90
3713;DHT22;1872;51.406;6.856;2023-02-17T09:20:48;12.00;99.90
3713;DHT22;1872;51.406;6.856;2023-02-17T09:23:14;12.10;99.90
3713;DHT22;1872;51.406;6.856;2023-02-17T09:25:40;12.10;99.90
3713;DHT22;1872;51.406;6.856;2023-02-17T09:28:06;12.10;99.90
3713;DHT22;1872;51.406;6.856;2023-02-17T09:30:32;12.20;99.90
3713;DHT22;1872;51.406;6.856;2023-02-17T09:32:58;12.20;99.90
3713;DHT22;1872;51.406;6.856;2023-02-17T09:35:24;12.30;99.90
3713;DHT22;1872;51.406;6.856;2023-02-17T09:37:50;12.40;99.90
3713;DHT22;1872;51.406;6.856;2023-02-17T09:40:20;12.40;99.90
3713;DHT22;1872;51.406;6.856;2023-02-17T09:42:46;12.40;99.90
3713;DHT22;1872;51.406;6.856;2023-02-17T09:45:23;12.50;99.90
3713;DHT22;1872;51.406;6.856;2023-02-17T09:47:54;12.50;99.90
3713;DHT22;1872;51.406;6.856;2023-02-17T09:50:24;12.60;99.90
3713;DHT22;1872;51.406;6.856;2023-02-17T09:53:29;12.60;99.90
3713;DHT22;1872;51.406;6.856;2023-02-17T09:55:49;12.70;99.90
3713;DHT22;1872;51.406;6.856;2023-02-17T09:58:26;12.70;99.90
3713;DHT22;1872;51.406;6.856;2023-02-17T10:00:57;12.80;99.90
3713;DHT22;1872;51.406;6.856;2023-02-17T10:03:29;12.80;99.90
3713;DHT22;1872;51.406;6.856;2023-02-17T10:08:49;12.90;99.90
3713;DHT22;1872;51.406;6.856;2023-02-17T10:11:33;12.90;99.90
3713;DHT22;1872;51.406;6.856;2023-02-17T10:14:08;13.00;99.90
3713;DHT22;1872;51.406;6.856;2023-02-17T10:16:43;13.00;99.90
3713;DHT22;1872;51.406;6.856;2023-02-17T10:19:24;13.00;99.90
3713;DHT22;1872;51.406;6.856;2023-02-17T10:22:13;13.10;99.90
3713;DHT22;1872;51.406;6.856;2023-02-17T10:24:39;13.10;99.90
3713;DHT22;1872;51.406;6.856;2023-02-17T10:27:17;13.20;99.90
3713;DHT22;1872;51.406;6.856;2023-02-17T10:32:41;13.20;99.90
3713;DHT22;1872;51.406;6.856;2023-02-17T10:35:14;13.10;99.90
3713;DHT22;1872;51.406;6.856;2023-02-17T10:40:18;13.00;99.90
3713;DHT22;1872;51.406;6.856;2023-02-17T10:42:45;13.00;99.90
3713;DHT22;1872;51.406;6.856;2023-02-17T10:48:07;13.00;99.90
3713;DHT22;1872;51.406;6.856;2023-02-17T10:50:35;13.00;99.90
3713;DHT22;1872;51.406;6.856;2023-02-17T10:53:05;13.00;99.90
3713;DHT22;1872;51.406;6.856;2023-02-17T10:55:39;13.10;99.90
3713;DHT22;1872;51.406;6.856;2023-02-17T10:58:19;13.10;99.90
3713;DHT22;1872;51.406;6.856;2023-02-17T11:00:52;13.20;99.90
3713;DHT22;1872;51.406;6.856;2023-02-17T11:03:26;13.20;99.90
3713;DHT22;1872;51.406;6.856;2023-02-17T11:11:13;13.30;99.90
3713;DHT22;1872;51.406;6.856;2023-02-17T11:16:36;13.20;99.90
3713;DHT22;1872;51.406;6.856;2023-02-17T11:19:04;13.20;99.90
3713;DHT22;1872;51.406;6.856;2023-02-17T11:21:31;13.20;99.90
3713;DHT22;1872;51.406;6.856;2023-02-17T11:24:04;13.30;99.90
3713;DHT22;1872;51.406;6.856;2023-02-17T11:26:32;13.30;99.90
3713;DHT22;1872;51.406;6.856;2023-02-17T11:29:13;13.30;99.90
3713;DHT22;1872;51.406;6.856;2023-02-17T11:31:55;13.30;99.90
3713;DHT22;1872;51.406;6.856;2023-02-17T11:34:24;13.40;99.90
3713;DHT22;1872;51.406;6.856;2023-02-17T11:36:59;13.50;99.90
3713;DHT22;1872;51.406;6.856;2023-02-17T11:39:25;13.50;99.90
3713;DHT22;1872;51.406;6.856;2023-02-17T11:41:51;13.60;99.90
3713;DHT22;1872;51.406;6.856;2023-02-17T11:44:27;13.60;99.90
3713;DHT22;1872;51.406;6.856;2023-02-17T11:47:08;13.60;99.90
3713;DHT22;1872;51.406;6.856;2023-02-17T11:50:19;13.70;99.90
3713;DHT22;1872;51.406;6.856;2023-02-17T12:00:36;14.10;99.90
3713;DHT22;1872;51.406;6.856;2023-02-17T12:18:25;14.30;99.90
3713;DHT22;1872;51.406;6.856;2023-02-17T12:21:02;14.30;99.90
3713;DHT22;1872;51.406;6.856;2023-02-17T12:24:00;14.30;99.90
3713;DHT22;1872;51.406;6.856;2023-02-17T12:26:37;14.30;99.90
3713;DHT22;1872;51.406;6.856;2023-02-17T12:29:19;14.50;99.90
3713;DHT22;1872;51.406;6.856;2023-02-17T12:34:58;14.50;99.90
3713;DHT22;1872;51.406;6.856;2023-02-17T12:37:36;14.50;99.90
3713;DHT22;1872;51.406;6.856;2023-02-17T12:40:31;14.50;99.90
3713;DHT22;1872;51.406;6.856;2023-02-17T12:43:17;14.50;99.90
3713;DHT22;1872;51.406;6.856;2023-02-17T12:45:47;14.60;99.90
3713;DHT22;1872;51.406;6.856;2023-02-17T12:51:29;14.50;99.90
3713;DHT22;1872;51.406;6.856;2023-02-17T12:54:16;14.50;99.90
3713;DHT22;1872;51.406;6.856;2023-02-17T12:57:18;14.60;99.90
3713;DHT22;1872;51.406;6.856;2023-02-17T12:59:51;14.60;99.90
3713;DHT22;1872;51.406;6.856;2023-02-17T13:02:24;14.60;99.90
3713;DHT22;1872;51.406;6.856;2023-02-17T13:05:00;14.60;99.90
3713;DHT22;1872;51.406;6.856;2023-02-17T13:07:42;14.60;99.90
3713;DHT22;1872;51.406;6.856;2023-02-17T13:10:39;14.70;99.90
3713;DHT22;1872;51.406;6.856;2023-02-17T13:13:24;14.70;99.90
3713;DHT22;1872;51.406;6.856;2023-02-17T13:16:04;14.70;99.90
3713;DHT22;1872;51.406;6.856;2023-02-17T13:18:35;14.70;99.90
3713;DHT22;1872;51.406;6.856;2023-02-17T13:23:44;14.70;99.90
3713;DHT22;1872;51.406;6.856;2023-02-17T13:28:50;14.70;99.90
3713;DHT22;1872;51.406;6.856;2023-02-17T13:31:25;14.70;99.90
3713;DHT22;1872;51.406;6.856;2023-02-17T13:33:56;14.70;99.90
3713;DHT22;1872;51.406;6.856;2023-02-17T13:36:45;14.70;99.90
3713;DHT22;1872;51.406;6.856;2023-02-17T13:41:59;14.80;99.90
3713;DHT22;1872;51.406;6.856;2023-02-17T13:44:54;14.80;99.90
3713;DHT22;1872;51.406;6.856;2023-02-17T13:47:38;14.80;99.90
3713;DHT22;1872;51.406;6.856;2023-02-17T13:50:23;14.80;99.90
3713;DHT22;1872;51.406;6.856;2023-02-17T13:52:49;14.80;99.90
3713;DHT22;1872;51.406;6.856;2023-02-17T13:55:18;14.80;99.90
3713;DHT22;1872;51.406;6.856;2023-02-17T13:57:44;14.80;99.90
3713;DHT22;1872;51.406;6.856;2023-02-17T14:00:20;14.80;99.90
3713;DHT22;1872;51.406;6.856;2023-02-17T14:02:48;14.70;99.90
3713;DHT22;1872;51.406;6.856;2023-02-17T14:05:39;14.70;99.90
3713;DHT22;1872;51.406;6.856;2023-02-17T14:08:17;14.70;99.90
3713;DHT22;1872;51.406;6.856;2023-02-17T14:10:43;14.60;99.90
3713;DHT22;1872;51.406;6.856;2023-02-17T14:13:10;14.60;99.90
3713;DHT22;1872;51.406;6.856;2023-02-17T14:15:37;14.50;99.90
3713;DHT22;1872;51.406;6.856;2023-02-17T14:18:14;14.50;99.90
3713;DHT22;1872;51.406;6.856;2023-02-17T14:20:40;14.40;99.90
3713;DHT22;1872;51.406;6.856;2023-02-17T14:23:11;14.40;99.90
3713;DHT22;1872;51.406;6.856;2023-02-17T14:25:40;14.30;99.90
3713;DHT22;1872;51.406;6.856;2023-02-17T14:28:36;14.30;99.90
3713;DHT22;1872;51.406;6.856;2023-02-17T14:31:09;14.30;99.90
3713;DHT22;1872;51.406;6.856;2023-02-17T14:33:35;14.30;99.90
3713;DHT22;1872;51.406;6.856;2023-02-17T14:36:04;14.30;99.90
3713;DHT22;1872;51.406;6.856;2023-02-17T14:38:39;14.30;99.90
3713;DHT22;1872;51.406;6.856;2023-02-17T14:41:11;14.30;99.90
3713;DHT22;1872;51.406;6.856;2023-02-17T14:43:38;14.30;99.90
3713;DHT22;1872;51.406;6.856;2023-02-17T14:46:03;14.30;99.90
3713;DHT22;1872;51.406;6.856;2023-02-17T14:48:29;14.20;99.90
3713;DHT22;1872;51.406;6.856;2023-02-17T14:50:56;14.20;99.90
3713;DHT22;1872;51.406;6.856;2023-02-17T14:53:31;14.20;99.90
3713;DHT22;1872;51.406;6.856;2023-02-17T14:56:26;14.20;99.90
3713;DHT22;1872;51.406;6.856;2023-02-17T14:58:54;14.20;99.90
3713;DHT22;1872;51.406;6.856;2023-02-17T15:01:22;14.10;99.90
3713;DHT22;1872;51.406;6.856;2023-02-17T15:03:48;14.10;99.90
3713;DHT22;1872;51.406;6.856;2023-02-17T15:06:29;14.10;99.90
3713;DHT22;1872;51.406;6.856;2023-02-17T15:08:56;14.10;99.90
3713;DHT22;1872;51.406;6.856;2023-02-17T15:13:50;14.10;99.90
3713;DHT22;1872;51.406;6.856;2023-02-17T15:16:16;14.10;99.90
3713;DHT22;1872;51.406;6.856;2023-02-17T15:18:42;14.20;99.90
3713;DHT22;1872;51.406;6.856;2023-02-17T15:21:29;14.20;99.90
3713;DHT22;1872;51.406;6.856;2023-02-17T15:23:56;14.00;99.90
3713;DHT22;1872;51.406;6.856;2023-02-17T15:26:23;13.90;99.90
3713;DHT22;1872;51.406;6.856;2023-02-17T15:28:48;13.80;99.90
3713;DHT22;1872;51.406;6.856;2023-02-17T15:31:15;13.70;99.90
3713;DHT22;1872;51.406;6.856;2023-02-17T15:33:42;13.60;99.90
3713;DHT22;1872;51.406;6.856;2023-02-17T15:36:13;13.50;99.90
3713;DHT22;1872;51.406;6.856;2023-02-17T15:38:40;13.40;99.90
3713;DHT22;1872;51.406;6.856;2023-02-17T15:41:15;13.30;99.90
3713;DHT22;1872;51.406;6.856;2023-02-17T15:43:43;13.20;99.90
3713;DHT22;1872;51.406;6.856;2023-02-17T15:46:15;13.10;99.90
3713;DHT22;1872;51.406;6.856;2023-02-17T15:48:42;13.00;99.90
3713;DHT22;1872;51.406;6.856;2023-02-17T15:51:13;13.00;99.90
3713;DHT22;1872;51.406;6.856;2023-02-17T15:53:40;12.90;99.90
3713;DHT22;1872;51.406;6.856;2023-02-17T15:56:37;12.90;99.90
3713;DHT22;1872;51.406;6.856;2023-02-17T15:59:07;13.00;99.90
3713;DHT22;1872;51.406;6.856;2023-02-17T16:01:34;13.00;99.90
3713;DHT22;1872;51.406;6.856;2023-02-17T16:04:00;12.90;99.90
3713;DHT22;1872;51.406;6.856;2023-02-17T16:06:27;12.90;99.90
3713;DHT22;1872;51.406;6.856;2023-02-17T16:08:54;12.90;99.90
3713;DHT22;1872;51.406;6.856;2023-02-17T16:11:21;12.90;99.90
3713;DHT22;1872;51.406;6.856;2023-02-17T16:13:47;12.90;99.90
3713;DHT22;1872;51.406;6.856;2023-02-17T16:16:22;12.90;99.90
3713;DHT22;1872;51.406;6.856;2023-02-17T16:18:49;13.00;99.90
3713;DHT22;1872;51.406;6.856;2023-02-17T16:21:15;13.10;99.90
3713;DHT22;1872;51.406;6.856;2023-02-17T16:23:42;13.10;99.90
3713;DHT22;1872;51.406;6.856;2023-02-17T16:26:29;13.10;99.90
3713;DHT22;1872;51.406;6.856;2023-02-17T16:28:58;13.10;99.90
3713;DHT22;1872;51.406;6.856;2023-02-17T16:31:24;13.00;99.90
3713;DHT22;1872;51.406;6.856;2023-02-17T16:33:50;13.00;99.90
3713;DHT22;1872;51.406;6.856;2023-02-17T16:36:18;13.00;99.90
3713;DHT22;1872;51.406;6.856;2023-02-17T16:38:47;13.00;99.90
3713;DHT22;1872;51.406;6.856;2023-02-17T16:41:14;13.00;99.90
3713;DHT22;1872;51.406;6.856;2023-02-17T16:43:41;12.90;99.90
3713;DHT22;1872;51.406;6.856;2023-02-17T16:46:27;12.90;99.90
3713;DHT22;1872;51.406;6.856;2023-02-17T16:49:03;12.80;99.90
3713;DHT22;1872;51.406;6.856;2023-02-17T16:51:39;12.90;99.90
3713;DHT22;1872;51.406;6.856;2023-02-17T16:54:09;12.80;99.90
3713;DHT22;1872;51.406;6.856;2023-02-17T16:56:38;12.80;99.90
3713;DHT22;1872;51.406;6.856;2023-02-17T16:59:06;12.90;99.90
3713;DHT22;1872;51.406;6.856;2023-02-17T17:01:31;13.00;99.90
3713;DHT22;1872;51.406;6.856;2023-02-17T17:03:57;13.00;99.90
3713;DHT22;1872;51.406;6.856;2023-02-17T17:06:25;13.00;99.90
3713;DHT22;1872;51.406;6.856;2023-02-17T17:08:52;13.10;99.90
3713;DHT22;1872;51.406;6.856;2023-02-17T17:11:20;13.20;99.90
3713;DHT22;1872;51.406;6.856;2023-02-17T17:13:46;13.30;99.90
3713;DHT22;1872;51.406;6.856;2023-02-17T17:16:22;13.30;99.90
3713;DHT22;1872;51.406;6.856;2023-02-17T17:18:49;13.40;99.90
3713;DHT22;1872;51.406;6.856;2023-02-17T17:21:16;13.30;99.90
3713;DHT22;1872;51.406;6.856;2023-02-17T17:23:45;13.40;99.90
3713;DHT22;1872;51.406;6.856;2023-02-17T17:26:38;13.40;99.90
3713;DHT22;1872;51.406;6.856;2023-02-17T17:29:07;13.30;99.90
3713;DHT22;1872;51.406;6.856;2023-02-17T17:31:33;13.20;99.90
3713;DHT22;1872;51.406;6.856;2023-02-17T17:33:59;13.10;99.90
3713;DHT22;1872;51.406;6.856;2023-02-17T17:36:38;13.00;99.90
3713;DHT22;1872;51.406;6.856;2023-02-17T17:39:06;12.90;99.90
3713;DHT22;1872;51.406;6.856;2023-02-17T17:41:35;12.80;99.90
3713;DHT22;1872;51.406;6.856;2023-02-17T17:44:00;12.80;99.90
3713;DHT22;1872;51.406;6.856;2023-02-17T17:46:29;12.70;99.90